Time;durP1;ratioP1;P1;durP2;ratioP2;P2;SDS_P1;SDS_P2;PMS_P1;PMS_P2;Temp;Humidity;BMP_temperature;BMP_pressure;BME280_temperature;BME280_humidity;BME280_pressure;Samples;Min_cycle;Max_cycle;Signal;HPM_P1;HPM_P2
2022/07/21 00:00:33;;;;;;;5.88;2.53;;;11.30;99.90;;;;;;5050866;28;20092;-72
2022/07/21 00:03:01;;;;;;;3.63;2.30;;;11.40;99.90;;;;;;5050817;28;20048;-72
2022/07/21 00:05:29;;;;;;;4.90;2.13;;;11.40;99.90;;;;;;5051195;28;20074;-77
2022/07/21 00:07:57;;;;;;;4.55;2.17;;;11.40;99.90;;;;;;5052094;28;20021;-76
2022/07/21 00:10:27;;;;;;;3.38;1.88;;;11.50;99.90;;;;;;5054985;28;20024;-73
2022/07/21 00:12:56;;;;;;;3.90;2.63;;;11.50;99.90;;;;;;5050941;28;20034;-77
2022/07/21 00:15:26;;;;;;;7.40;2.42;;;11.50;99.90;;;;;;5053877;28;20024;-72
2022/07/21 00:17:54;;;;;;;4.60;2.03;;;11.50;99.90;;;;;;5054557;28;20038;-76
2022/07/21 00:20:22;;;;;;;6.20;2.28;;;11.50;99.90;;;;;;5055406;28;20021;-77
2022/07/21 00:22:50;;;;;;;5.30;1.48;;;11.60;99.90;;;;;;5053955;28;20060;-77
2022/07/21 00:25:18;;;;;;;2.25;1.40;;;11.60;99.90;;;;;;5054014;28;20025;-77
2022/07/21 00:27:45;;;;;;;5.07;1.60;;;11.60;99.90;;;;;;5053975;28;20493;-73
2022/07/21 00:30:14;;;;;;;6.60;1.17;;;11.60;99.90;;;;;;5056254;28;20020;-76
2022/07/21 00:32:43;;;;;;;5.75;1.55;;;11.60;99.90;;;;;;5053859;28;20017;-76
2022/07/21 00:35:12;;;;;;;7.15;1.50;;;11.60;99.90;;;;;;5053793;28;20044;-77
2022/07/21 00:37:41;;;;;;;3.97;1.55;;;11.60;99.90;;;;;;5053870;28;20059;-76
2022/07/21 00:40:10;;;;;;;5.10;1.88;;;11.60;99.90;;;;;;5059709;28;20032;-71
2022/07/21 00:42:38;;;;;;;9.40;1.42;;;11.60;99.90;;;;;;5057520;28;20021;-75
2022/07/21 00:45:08;;;;;;;3.83;1.60;;;11.60;99.90;;;;;;5057558;28;20140;-71
2022/07/21 00:47:36;;;;;;;5.68;1.67;;;11.60;99.90;;;;;;5055403;28;20386;-74
2022/07/21 00:50:08;;;;;;;2.88;1.38;;;11.60;99.90;;;;;;5059428;28;20021;-71
2022/07/21 00:52:37;;;;;;;2.30;1.10;;;11.60;99.90;;;;;;5054893;28;20028;-71
2022/07/21 00:55:06;;;;;;;2.38;1.23;;;11.60;99.90;;;;;;5057197;28;20021;-72
2022/07/21 00:57:34;;;;;;;2.53;1.25;;;11.70;99.90;;;;;;5053744;28;20363;-76
2022/07/21 01:00:07;;;;;;;3.42;1.48;;;11.70;99.90;;;;;;5058905;28;20021;-74
2022/07/21 01:02:38;;;;;;;2.50;1.30;;;11.80;99.90;;;;;;5054539;28;20072;-75
2022/07/21 01:05:14;;;;;;;8.02;1.95;;;11.80;99.90;;;;;;5055899;28;20035;-73
2022/07/21 01:07:45;;;;;;;2.17;1.25;;;11.80;99.90;;;;;;5055562;28;20036;-72
2022/07/21 01:10:16;;;;;;;2.97;1.33;;;11.90;99.90;;;;;;5059564;28;20025;-77
2022/07/21 01:12:44;;;;;;;5.10;1.40;;;12.00;99.90;;;;;;5056966;28;20024;-76
2022/07/21 01:15:15;;;;;;;8.85;1.80;;;12.00;99.90;;;;;;5056860;28;20561;-77
2022/07/21 01:17:44;;;;;;;4.22;1.08;;;12.10;99.90;;;;;;5056647;28;20501;-76
2022/07/21 01:20:15;;;;;;;5.07;1.00;;;12.20;99.90;;;;;;5053791;28;20059;-75
2022/07/21 01:22:45;;;;;;;5.13;1.02;;;12.30;99.90;;;;;;5055441;28;20517;-76
2022/07/21 01:25:14;;;;;;;2.58;1.42;;;12.30;99.90;;;;;;5055122;28;20025;-74
2022/07/21 01:27:42;;;;;;;3.83;1.15;;;12.40;99.90;;;;;;5053981;28;21507;-77
2022/07/21 01:30:11;;;;;;;3.60;1.30;;;12.40;99.90;;;;;;5057397;28;20024;-75
2022/07/21 01:32:40;;;;;;;2.90;1.70;;;12.50;99.90;;;;;;5056447;28;20047;-73
2022/07/21 01:35:11;;;;;;;2.00;1.10;;;12.50;99.90;;;;;;5056527;28;20025;-75
2022/07/21 01:37:42;;;;;;;3.83;1.02;;;12.50;99.90;;;;;;5054638;28;20128;-75
2022/07/21 01:42:56;;;;;;;1.77;0.82;;;12.60;99.90;;;;;;5054282;28;20492;-75
2022/07/21 01:45:25;;;;;;;4.55;1.10;;;12.70;99.90;;;;;;5055973;28;20643;-75
2022/07/21 01:47:52;;;;;;;3.70;1.27;;;12.70;99.90;;;;;;5056764;28;20037;-76
2022/07/21 01:50:26;;;;;;;6.80;1.02;;;12.80;99.90;;;;;;5057586;28;20381;-72
2022/07/21 01:52:58;;;;;;;3.65;1.10;;;12.90;99.90;;;;;;5050897;28;20025;-76
2022/07/21 01:55:28;;;;;;;7.70;0.80;;;13.00;99.90;;;;;;5052074;28;20474;-76
2022/07/21 01:57:57;;;;;;;4.90;0.82;;;13.00;99.90;;;;;;5055246;28;20055;-74
2022/07/21 02:00:29;;;;;;;4.32;0.80;;;12.90;99.90;;;;;;5058394;28;20067;-73
2022/07/21 02:02:56;;;;;;;3.47;0.93;;;12.80;99.90;;;;;;5063687;28;20111;-76
2022/07/21 02:05:24;;;;;;;5.03;0.90;;;12.80;99.90;;;;;;5066186;28;20040;-72
2022/07/21 02:07:52;;;;;;;4.57;1.45;;;12.80;99.90;;;;;;5056950;28;20389;-74
2022/07/21 02:10:20;;;;;;;4.10;0.90;;;12.80;99.90;;;;;;5061754;28;20466;-73
2022/07/21 02:12:48;;;;;;;3.03;0.47;;;12.70;99.90;;;;;;5045444;28;20035;-71
2022/07/21 02:15:16;;;;;;;3.65;0.85;;;12.60;99.90;;;;;;5061295;28;20104;-71
2022/07/21 02:17:43;;;;;;;2.40;0.70;;;12.60;99.90;;;;;;5069406;28;20024;-76
2022/07/21 02:20:12;;;;;;;1.77;0.68;;;12.50;99.90;;;;;;5056562;28;20017;-71
2022/07/21 02:22:39;;;;;;;4.65;1.08;;;12.50;99.90;;;;;;5065779;28;20033;-72
2022/07/21 02:25:07;;;;;;;2.58;1.13;;;12.40;99.90;;;;;;5063919;28;20024;-77
2022/07/21 02:27:35;;;;;;;3.65;0.77;;;12.30;99.90;;;;;;5058436;28;20481;-77
2022/07/21 02:30:03;;;;;;;4.93;1.10;;;12.30;99.90;;;;;;5069752;28;20029;-77
2022/07/21 02:32:31;;;;;;;4.47;1.02;;;12.30;99.90;;;;;;5058072;28;20111;-77
2022/07/21 02:34:59;;;;;;;4.18;0.98;;;12.30;99.90;;;;;;5062728;28;20029;-75
2022/07/21 02:37:27;;;;;;;2.85;0.80;;;12.30;99.90;;;;;;5066356;28;20078;-71
2022/07/21 02:39:55;;;;;;;3.65;0.82;;;12.30;99.90;;;;;;5056423;28;20028;-71
2022/07/21 02:42:23;;;;;;;4.45;0.90;;;12.20;99.90;;;;;;5068260;28;20029;-77
2022/07/21 02:44:51;;;;;;;5.68;0.80;;;12.30;99.90;;;;;;5061388;28;20037;-72
2022/07/21 02:47:18;;;;;;;1.35;0.43;;;12.30;99.90;;;;;;5060516;28;20131;-71
2022/07/21 02:49:47;;;;;;;4.38;0.70;;;12.40;99.90;;;;;;5059797;28;20096;-71
2022/07/21 02:52:15;;;;;;;4.78;1.25;;;12.40;99.90;;;;;;5056622;28;20016;-71
2022/07/21 02:54:43;;;;;;;1.60;0.70;;;12.40;99.90;;;;;;5054506;28;20017;-75
2022/07/21 02:57:10;;;;;;;1.98;0.70;;;12.40;99.90;;;;;;5064227;28;20043;-76
2022/07/21 02:59:38;;;;;;;8.40;1.27;;;12.50;99.90;;;;;;5055150;28;20028;-74
2022/07/21 03:02:06;;;;;;;3.20;0.90;;;12.50;99.90;;;;;;5063385;28;20050;-72
2022/07/21 03:04:33;;;;;;;1.98;0.65;;;12.50;99.90;;;;;;5065119;28;20482;-74
2022/07/21 03:07:02;;;;;;;5.93;0.88;;;12.60;99.90;;;;;;5061515;28;20556;-76
2022/07/21 03:09:31;;;;;;;7.53;0.98;;;12.60;99.90;;;;;;5058252;28;20029;-76
2022/07/21 03:11:59;;;;;;;2.35;0.60;;;12.70;99.90;;;;;;5067000;28;20027;-73
2022/07/21 03:14:26;;;;;;;3.05;1.15;;;12.70;99.90;;;;;;5057572;28;20579;-74
2022/07/21 03:16:58;;;;;;;4.78;0.90;;;12.60;99.90;;;;;;5062741;28;20492;-74
2022/07/21 03:19:25;;;;;;;9.27;1.00;;;12.60;99.90;;;;;;5065650;28;20493;-72
2022/07/21 03:21:53;;;;;;;8.45;0.98;;;12.70;99.90;;;;;;5055596;28;20494;-76
2022/07/21 03:24:21;;;;;;;3.08;0.80;;;12.70;99.90;;;;;;5067775;28;20039;-71
2022/07/21 03:26:49;;;;;;;2.45;0.77;;;12.70;99.90;;;;;;5059505;28;20393;-73
2022/07/21 03:29:16;;;;;;;5.03;0.82;;;12.70;99.90;;;;;;5059653;28;20021;-73
2022/07/21 03:31:44;;;;;;;4.93;1.27;;;12.60;99.90;;;;;;5068022;28;20033;-77
2022/07/21 03:34:12;;;;;;;9.05;1.20;;;12.60;99.90;;;;;;5055306;28;20477;-74
2022/07/21 03:36:40;;;;;;;3.90;0.82;;;12.60;99.90;;;;;;5061052;28;20064;-74
2022/07/21 03:39:07;;;;;;;2.53;1.08;;;12.60;99.90;;;;;;5062654;28;20028;-71
2022/07/21 03:41:35;;;;;;;1.95;0.60;;;12.60;99.90;;;;;;5057147;28;20055;-72
2022/07/21 03:44:03;;;;;;;2.45;0.77;;;12.50;99.90;;;;;;5065228;28;20036;-70
2022/07/21 03:46:31;;;;;;;7.38;1.25;;;12.50;99.90;;;;;;5064467;28;20033;-71
2022/07/21 03:48:58;;;;;;;2.75;0.82;;;12.50;99.90;;;;;;5061110;28;20512;-74
2022/07/21 03:51:26;;;;;;;4.80;1.17;;;12.50;99.90;;;;;;5058202;28;20082;-75
2022/07/21 03:53:54;;;;;;;1.73;0.65;;;12.40;99.90;;;;;;5068253;28;20021;-74
2022/07/21 03:56:21;;;;;;;13.93;2.25;;;12.40;99.90;;;;;;5056135;28;20024;-76
2022/07/21 03:58:49;;;;;;;3.53;0.75;;;12.50;99.90;;;;;;5062937;28;20486;-76
2022/07/21 04:01:17;;;;;;;3.65;1.00;;;12.50;99.90;;;;;;5063955;28;20112;-76
2022/07/21 04:03:44;;;;;;;5.75;1.75;;;12.50;99.90;;;;;;5054664;28;20172;-71
2022/07/21 04:06:12;;;;;;;5.20;1.77;;;12.60;99.90;;;;;;5065448;28;20082;-73
2022/07/21 04:08:40;;;;;;;3.25;0.88;;;12.50;99.90;;;;;;5064310;28;20037;-73
2022/07/21 04:11:08;;;;;;;7.63;1.05;;;12.50;99.90;;;;;;5052196;28;20024;-73
2022/07/21 04:13:35;;;;;;;3.72;0.82;;;12.50;99.90;;;;;;5051513;28;20041;-72
2022/07/21 04:16:03;;;;;;;3.05;0.60;;;12.50;99.90;;;;;;5055128;28;20017;-76
2022/07/21 04:18:31;;;;;;;3.05;1.00;;;12.50;99.90;;;;;;5055300;28;20063;-74
2022/07/21 04:20:59;;;;;;;3.47;0.80;;;12.40;99.90;;;;;;5056174;28;20014;-74
2022/07/21 04:23:26;;;;;;;2.70;0.40;;;12.30;99.90;;;;;;5056604;28;20496;-74
2022/07/21 04:25:54;;;;;;;2.67;0.90;;;12.20;99.90;;;;;;5056543;28;20029;-77
2022/07/21 04:28:22;;;;;;;4.80;1.38;;;12.10;99.90;;;;;;5054196;28;20021;-76
2022/07/21 04:30:50;;;;;;;4.47;1.17;;;12.00;99.90;;;;;;5056501;28;20029;-72
2022/07/21 04:33:17;;;;;;;2.25;0.95;;;12.00;99.90;;;;;;5056763;28;20025;-72
2022/07/21 04:35:45;;;;;;;4.75;0.70;;;12.00;99.90;;;;;;5057177;28;20028;-70
2022/07/21 04:38:14;;;;;;;5.35;0.60;;;12.00;99.90;;;;;;5056822;28;20116;-76
2022/07/21 04:40:41;;;;;;;2.72;0.70;;;12.00;99.90;;;;;;5056862;28;20435;-73
2022/07/21 04:43:09;;;;;;;9.20;1.33;;;11.90;99.90;;;;;;5056700;28;20032;-76
2022/07/21 04:45:37;;;;;;;2.85;1.23;;;11.90;99.90;;;;;;5056476;28;20032;-73
2022/07/21 04:48:05;;;;;;;5.93;1.05;;;12.00;99.90;;;;;;5056915;28;20025;-73
2022/07/21 04:50:33;;;;;;;3.15;1.17;;;12.00;99.90;;;;;;5056904;28;20017;-80
2022/07/21 04:53:01;;;;;;;6.20;1.38;;;12.00;99.90;;;;;;5056470;28;20061;-77
2022/07/21 04:55:29;;;;;;;7.00;1.33;;;12.00;99.90;;;;;;5056632;28;20459;-77
2022/07/21 04:57:59;;;;;;;5.22;0.98;;;12.00;99.90;;;;;;5056466;28;20025;-74
2022/07/21 05:00:28;;;;;;;8.48;0.82;;;12.00;99.90;;;;;;5056571;28;20024;-73
2022/07/21 05:02:56;;;;;;;3.60;0.85;;;12.00;99.90;;;;;;5054916;28;20048;-74
2022/07/21 05:05:24;;;;;;;1.08;0.50;;;12.00;99.90;;;;;;5056298;28;20103;-72
2022/07/21 05:07:52;;;;;;;5.75;0.70;;;12.00;99.90;;;;;;5052515;28;20385;-72
2022/07/21 05:10:21;;;;;;;4.10;1.60;;;12.00;99.90;;;;;;5056011;28;20402;-75
2022/07/21 05:12:48;;;;;;;2.83;0.70;;;12.00;99.90;;;;;;5055748;28;20514;-72
2022/07/21 05:15:17;;;;;;;5.55;1.70;;;12.00;99.90;;;;;;5054815;28;20029;-71
2022/07/21 05:17:45;;;;;;;6.78;1.48;;;12.00;99.90;;;;;;5055595;28;20028;-71
2022/07/21 05:20:13;;;;;;;2.67;0.88;;;12.00;99.90;;;;;;5056089;28;20060;-75
2022/07/21 05:22:41;;;;;;;3.60;1.17;;;11.90;99.90;;;;;;5055772;28;20485;-76
2022/07/21 05:25:09;;;;;;;4.63;0.90;;;11.90;99.90;;;;;;5055425;28;20025;-76
2022/07/21 05:27:37;;;;;;;2.10;0.88;;;11.90;99.90;;;;;;5054046;28;20033;-72
2022/07/21 05:30:06;;;;;;;6.88;1.33;;;11.90;99.90;;;;;;5055755;28;20025;-72
2022/07/21 05:32:40;;;;;;;3.25;1.17;;;11.90;99.90;;;;;;5055332;28;20053;-71
2022/07/21 05:35:11;;;;;;;1.33;0.80;;;11.90;99.90;;;;;;5055085;28;20029;-72
2022/07/21 05:37:40;;;;;;;1.77;0.80;;;11.90;99.90;;;;;;5055332;28;20064;-75
2022/07/21 05:40:09;;;;;;;3.50;0.88;;;11.90;99.90;;;;;;5054975;28;20032;-74
2022/07/21 05:42:39;;;;;;;4.47;1.30;;;11.90;99.90;;;;;;5055073;28;20017;-72
2022/07/21 05:45:07;;;;;;;3.08;0.90;;;11.80;99.90;;;;;;5055185;28;20079;-70
2022/07/21 05:47:35;;;;;;;7.00;1.52;;;11.80;99.90;;;;;;5055378;28;20025;-71
2022/07/21 05:50:03;;;;;;;13.27;2.08;;;11.80;99.90;;;;;;5055537;28;20048;-69
2022/07/21 05:52:31;;;;;;;5.40;1.33;;;11.80;99.90;;;;;;5055336;28;20031;-72
2022/07/21 05:55:02;;;;;;;2.95;1.45;;;11.80;99.90;;;;;;5055517;28;20021;-71
2022/07/21 05:57:30;;;;;;;3.40;1.48;;;11.80;99.90;;;;;;5054817;28;20083;-72
2022/07/21 06:00:00;;;;;;;4.28;1.70;;;11.80;99.90;;;;;;5055368;28;20021;-76
2022/07/21 06:02:31;;;;;;;8.35;1.90;;;11.80;99.90;;;;;;5055051;28;20073;-75
2022/07/21 06:05:03;;;;;;;3.75;1.52;;;11.80;99.90;;;;;;5055199;28;20412;-74
2022/07/21 06:07:30;;;;;;;3.47;1.48;;;11.90;99.90;;;;;;5053687;28;20090;-74
2022/07/21 06:10:00;;;;;;;2.97;1.35;;;11.90;99.90;;;;;;5055067;28;20510;-73
2022/07/21 06:12:28;;;;;;;11.23;1.90;;;11.90;99.90;;;;;;5055105;28;20031;-72
2022/07/21 06:14:56;;;;;;;6.45;1.23;;;11.90;99.90;;;;;;5055067;28;20021;-74
2022/07/21 06:17:31;;;;;;;8.52;1.38;;;11.90;99.90;;;;;;5055050;28;20080;-72
2022/07/21 06:19:59;;;;;;;7.95;1.10;;;11.90;99.90;;;;;;5055289;28;20025;-73
2022/07/21 06:22:27;;;;;;;3.80;1.08;;;11.90;99.90;;;;;;5053702;28;20025;-73
2022/07/21 06:24:55;;;;;;;3.60;0.60;;;11.90;99.90;;;;;;5054381;28;20370;-72
2022/07/21 06:27:22;;;;;;;3.20;1.20;;;11.90;99.90;;;;;;5054273;28;20028;-76
2022/07/21 06:29:50;;;;;;;5.03;1.45;;;11.80;99.90;;;;;;5053768;28;20028;-72
2022/07/21 06:32:18;;;;;;;6.03;1.23;;;11.80;99.90;;;;;;5053933;28;20374;-73
2022/07/21 06:34:45;;;;;;;5.35;1.63;;;11.80;99.90;;;;;;5051410;28;20347;-73
2022/07/21 06:37:13;;;;;;;6.60;1.85;;;11.80;99.90;;;;;;5053694;28;20029;-72
2022/07/21 06:39:43;;;;;;;10.45;2.00;;;11.80;99.90;;;;;;5052879;28;20371;-79
2022/07/21 06:42:11;;;;;;;6.63;1.90;;;11.80;99.90;;;;;;5054343;28;20053;-74
2022/07/21 06:44:39;;;;;;;7.35;2.30;;;11.80;99.90;;;;;;5054583;28;20104;-74
2022/07/21 06:47:06;;;;;;;5.88;2.13;;;11.80;99.90;;;;;;5054411;28;20494;-72
2022/07/21 06:49:34;;;;;;;7.85;2.22;;;11.80;99.90;;;;;;5054511;28;20036;-72
2022/07/21 06:52:02;;;;;;;9.63;2.17;;;11.80;99.90;;;;;;5054281;28;20021;-73
2022/07/21 06:54:30;;;;;;;5.28;1.20;;;11.80;99.90;;;;;;5054163;28;20025;-79
2022/07/21 06:56:58;;;;;;;4.30;1.23;;;11.80;99.90;;;;;;5053950;28;20028;-73
2022/07/21 06:59:26;;;;;;;4.90;1.05;;;11.70;99.90;;;;;;5054126;28;20460;-80
2022/07/21 07:01:53;;;;;;;6.47;1.35;;;11.70;99.90;;;;;;5053865;28;20044;-76
2022/07/21 07:04:24;;;;;;;2.63;0.93;;;11.70;99.90;;;;;;5054146;28;20036;-82
2022/07/21 07:06:54;;;;;;;6.07;1.45;;;11.60;99.90;;;;;;5052684;28;20061;-77
2022/07/21 07:09:22;;;;;;;11.15;2.00;;;11.60;99.90;;;;;;5054147;28;20041;-81
2022/07/21 07:11:52;;;;;;;7.75;1.52;;;11.60;99.90;;;;;;5054007;28;20085;-75
2022/07/21 07:14:20;;;;;;;15.13;1.92;;;11.60;99.90;;;;;;5053836;28;20078;-77
2022/07/21 07:16:51;;;;;;;2.65;1.17;;;11.60;99.90;;;;;;5053941;28;20033;-74
2022/07/21 07:19:21;;;;;;;5.75;0.80;;;11.70;99.90;;;;;;5053819;28;20047;-72
2022/07/21 07:21:49;;;;;;;8.07;1.20;;;11.70;99.90;;;;;;5053637;28;20490;-71
2022/07/21 07:24:16;;;;;;;3.55;0.77;;;11.70;99.90;;;;;;5053518;28;20028;-71
2022/07/21 07:26:44;;;;;;;10.35;2.22;;;11.70;99.90;;;;;;5053777;28;20119;-71
2022/07/21 07:29:12;;;;;;;3.88;1.23;;;11.70;99.90;;;;;;5054213;28;20021;-71
2022/07/21 07:31:40;;;;;;;7.50;1.85;;;11.70;99.90;;;;;;5053618;28;20037;-71
2022/07/21 07:34:09;;;;;;;6.47;1.55;;;11.70;99.90;;;;;;5052968;28;20021;-71
2022/07/21 07:36:37;;;;;;;10.13;2.45;;;11.70;99.90;;;;;;5053065;28;20429;-71
2022/07/21 07:39:05;;;;;;;10.88;1.98;;;11.70;99.90;;;;;;5051490;28;20441;-70
2022/07/21 07:41:33;;;;;;;8.90;1.25;;;11.70;99.90;;;;;;5050883;28;20033;-70
2022/07/21 07:44:00;;;;;;;8.02;2.40;;;11.70;99.90;;;;;;5049880;28;20036;-72
2022/07/21 07:46:28;;;;;;;6.03;1.52;;;11.70;99.90;;;;;;5051269;28;20039;-71
2022/07/21 07:48:56;;;;;;;11.20;2.83;;;11.70;99.90;;;;;;5052267;28;20112;-73
2022/07/21 07:51:24;;;;;;;7.15;1.40;;;11.70;99.90;;;;;;5052720;28;20065;-70
2022/07/21 07:53:52;;;;;;;9.25;2.03;;;11.70;99.90;;;;;;5051871;28;20036;-71
2022/07/21 07:56:20;;;;;;;5.63;2.25;;;11.80;99.90;;;;;;5052231;28;20041;-70
2022/07/21 07:58:47;;;;;;;10.02;2.13;;;11.70;99.90;;;;;;5053019;28;20033;-74
2022/07/21 08:01:16;;;;;;;7.65;1.27;;;11.70;99.90;;;;;;5053365;28;20070;-73
2022/07/21 08:03:44;;;;;;;14.93;2.28;;;11.70;99.90;;;;;;5053360;28;20502;-70
2022/07/21 08:06:12;;;;;;;9.98;1.85;;;11.70;99.90;;;;;;5052209;28;20075;-70
2022/07/21 08:08:40;;;;;;;5.63;2.05;;;11.70;99.90;;;;;;5050885;28;20061;-71
2022/07/21 08:11:09;;;;;;;11.85;2.42;;;11.70;99.90;;;;;;5051298;28;20028;-70
2022/07/21 08:13:37;;;;;;;7.38;1.95;;;11.70;99.90;;;;;;5051606;28;20086;-71
2022/07/21 08:16:05;;;;;;;5.60;1.42;;;11.70;99.90;;;;;;5052617;28;20017;-71
2022/07/21 08:18:32;;;;;;;10.40;1.92;;;11.70;99.90;;;;;;5052563;28;20032;-70
2022/07/21 08:21:00;;;;;;;5.93;2.50;;;11.70;99.90;;;;;;5052712;28;20504;-71
2022/07/21 08:23:28;;;;;;;9.73;2.60;;;11.70;99.90;;;;;;5053115;28;20436;-71
2022/07/21 08:25:55;;;;;;;9.60;2.20;;;11.70;99.90;;;;;;5052905;28;20432;-71
2022/07/21 08:28:24;;;;;;;8.25;2.30;;;11.60;99.90;;;;;;5053188;28;20058;-71
2022/07/21 08:30:51;;;;;;;11.57;2.42;;;11.60;99.90;;;;;;5052896;28;20445;-72
2022/07/21 08:33:22;;;;;;;9.75;2.50;;;11.60;99.90;;;;;;5052858;28;20482;-70
2022/07/21 08:35:49;;;;;;;10.45;2.40;;;11.60;99.90;;;;;;5053122;28;20025;-72
2022/07/21 08:38:18;;;;;;;13.70;2.53;;;11.60;99.90;;;;;;5052935;28;20036;-71
2022/07/21 08:40:59;;;;;;;3.83;1.00;;;11.60;99.90;;;;;;5052813;28;20025;-71
2022/07/21 08:43:26;;;;;;;8.35;1.35;;;11.50;99.90;;;;;;5053092;28;20036;-72
2022/07/21 08:45:55;;;;;;;5.63;1.55;;;11.30;99.90;;;;;;5052908;28;20021;-73
2022/07/21 08:48:27;;;;;;;4.85;1.17;;;11.30;99.90;;;;;;5052845;28;20032;-73
2022/07/21 08:50:55;;;;;;;8.02;2.90;;;11.30;99.90;;;;;;5052947;28;20063;-72
2022/07/21 08:53:24;;;;;;;6.97;1.45;;;11.30;99.90;;;;;;5052816;28;20021;-72
2022/07/21 08:55:52;;;;;;;7.00;1.50;;;11.30;99.90;;;;;;5052670;28;20028;-72
2022/07/21 08:58:20;;;;;;;4.50;1.00;;;11.30;99.90;;;;;;5052666;28;20025;-71
2022/07/21 09:00:50;;;;;;;9.25;1.67;;;11.30;99.90;;;;;;5055462;28;20021;-72
2022/07/21 09:03:29;;;;;;;4.75;1.70;;;11.30;99.90;;;;;;5056218;28;20045;-74
2022/07/21 09:06:17;;;;;;;8.07;2.03;;;11.30;99.90;;;;;;5056351;28;20115;-72
2022/07/21 09:08:48;;;;;;;7.13;1.52;;;11.40;99.90;;;;;;5057095;28;20029;-72
2022/07/21 09:11:20;;;;;;;7.35;2.65;;;11.40;99.90;;;;;;5056209;28;20021;-71
2022/07/21 09:13:53;;;;;;;4.40;1.42;;;11.30;99.90;;;;;;5056143;28;20025;-72
2022/07/21 09:16:37;;;;;;;7.60;1.17;;;11.30;99.90;;;;;;5056069;28;20025;-72
2022/07/21 09:19:05;;;;;;;5.45;1.30;;;11.20;99.90;;;;;;5056281;28;20063;-72
2022/07/21 09:21:35;;;;;;;4.78;1.23;;;11.20;99.90;;;;;;5056007;28;20021;-72
2022/07/21 09:24:39;;;;;;;2.72;1.10;;;11.20;99.90;;;;;;5056080;28;20017;-72
2022/07/21 09:27:26;;;;;;;8.85;1.73;;;11.30;99.90;;;;;;5055816;28;20486;-70
2022/07/21 09:30:00;;;;;;;5.95;2.05;;;11.30;99.90;;;;;;5055514;28;20477;-71
2022/07/21 09:32:37;;;;;;;10.02;2.15;;;11.40;99.90;;;;;;5055935;28;20025;-71
2022/07/21 09:35:09;;;;;;;6.65;2.65;;;11.40;99.90;;;;;;5056310;28;20379;-72
2022/07/21 09:37:38;;;;;;;4.35;1.60;;;11.40;99.90;;;;;;5055839;28;20025;-70
2022/07/21 09:40:12;;;;;;;5.32;2.25;;;11.40;99.90;;;;;;5055977;28;20067;-71
2022/07/21 09:42:43;;;;;;;8.82;1.40;;;11.40;99.90;;;;;;5055649;28;20025;-75
2022/07/21 09:45:13;;;;;;;8.20;1.75;;;11.40;99.90;;;;;;5055959;28;20035;-71
2022/07/21 09:47:42;;;;;;;16.52;2.88;;;11.40;99.90;;;;;;5055715;28;20028;-73
2022/07/21 09:50:13;;;;;;;9.10;1.80;;;11.40;99.90;;;;;;5055813;28;20029;-75
2022/07/21 09:52:45;;;;;;;11.77;1.73;;;11.40;99.90;;;;;;5055457;28;20036;-74
2022/07/21 09:55:15;;;;;;;9.40;1.88;;;11.40;99.90;;;;;;5055553;28;20358;-75
2022/07/21 09:57:44;;;;;;;8.13;1.83;;;11.40;99.90;;;;;;5055582;28;20017;-76
2022/07/21 10:00:15;;;;;;;9.13;1.52;;;11.40;99.90;;;;;;5055411;28;20047;-72
2022/07/21 10:02:45;;;;;;;8.95;1.63;;;11.40;99.90;;;;;;5055162;28;20094;-76
2022/07/21 10:05:15;;;;;;;11.45;2.03;;;11.40;99.90;;;;;;5055319;28;20504;-74
2022/07/21 10:07:46;;;;;;;5.47;1.40;;;11.40;99.90;;;;;;5055795;28;20037;-75
2022/07/21 10:10:15;;;;;;;9.88;1.85;;;11.30;99.90;;;;;;5055181;28;20551;-75
2022/07/21 10:12:45;;;;;;;9.23;1.80;;;11.40;99.90;;;;;;5055287;28;20029;-75
2022/07/21 10:15:13;;;;;;;8.65;2.15;;;11.30;99.90;;;;;;5055105;28;20492;-71
2022/07/21 10:17:41;;;;;;;11.15;2.22;;;11.30;99.90;;;;;;5055154;28;20029;-73
2022/07/21 10:20:24;;;;;;;4.65;1.33;;;11.30;99.90;;;;;;5055219;28;20025;-75
2022/07/21 10:23:03;;;;;;;6.60;1.05;;;11.30;99.90;;;;;;5054972;28;20048;-75
2022/07/21 10:25:32;;;;;;;8.68;1.48;;;11.30;99.90;;;;;;5053666;28;20108;-73
2022/07/21 10:28:13;;;;;;;7.80;1.55;;;11.40;99.90;;;;;;5054798;28;20033;-75
2022/07/21 10:30:53;;;;;;;14.23;2.15;;;11.40;99.90;;;;;;5055190;28;20033;-72
2022/07/21 10:33:41;;;;;;;12.43;2.10;;;11.40;99.90;;;;;;5054662;28;20028;-73
2022/07/21 10:36:09;;;;;;;8.32;1.98;;;11.40;99.90;;;;;;5054556;28;20032;-75
2022/07/21 10:38:38;;;;;;;13.20;2.20;;;11.40;99.90;;;;;;5053588;28;20025;-76
2022/07/21 10:41:07;;;;;;;7.78;1.92;;;11.40;99.90;;;;;;5054778;28;20070;-76
2022/07/21 10:43:39;;;;;;;12.82;3.00;;;11.40;99.90;;;;;;5054458;28;20029;-75
2022/07/21 10:46:34;;;;;;;9.10;1.85;;;11.40;99.90;;;;;;5054449;28;20390;-75
2022/07/21 10:49:04;;;;;;;8.65;1.17;;;11.50;99.90;;;;;;5054580;28;20040;-75
2022/07/21 10:51:34;;;;;;;14.00;1.77;;;11.50;99.90;;;;;;5054331;28;20032;-72
2022/07/21 10:54:21;;;;;;;9.20;1.40;;;11.50;99.90;;;;;;5054311;28;20078;-75
2022/07/21 10:56:49;;;;;;;2.45;0.85;;;11.50;99.90;;;;;;5054470;28;20063;-71
2022/07/21 10:59:17;;;;;;;5.97;1.70;;;11.60;99.90;;;;;;5054239;28;20363;-75
2022/07/21 11:01:44;;;;;;;7.45;1.65;;;11.60;99.90;;;;;;5054187;28;20082;-75
2022/07/21 11:04:20;;;;;;;4.10;0.90;;;11.60;99.90;;;;;;5053068;28;20497;-72
2022/07/21 11:06:47;;;;;;;8.30;1.10;;;11.50;99.90;;;;;;5054130;28;20036;-74
2022/07/21 11:09:20;;;;;;;3.17;1.33;;;11.50;99.90;;;;;;5053597;28;20052;-75
2022/07/21 11:12:08;;;;;;;4.20;1.20;;;11.50;99.90;;;;;;5053768;28;20502;-76
2022/07/21 11:14:41;;;;;;;10.52;1.35;;;11.60;99.90;;;;;;5053950;28;20028;-75
2022/07/21 11:17:11;;;;;;;8.18;1.67;;;11.60;99.90;;;;;;5054071;28;20025;-74
2022/07/21 11:19:50;;;;;;;5.07;1.10;;;11.60;99.90;;;;;;5053970;28;20021;-75
2022/07/21 11:22:29;;;;;;;5.07;1.02;;;11.60;99.90;;;;;;5053259;28;20082;-75
2022/07/21 11:25:03;;;;;;;6.18;1.10;;;11.60;99.90;;;;;;5053855;28;20032;-75
2022/07/21 11:27:33;;;;;;;4.40;1.25;;;11.70;99.90;;;;;;5053767;28;20041;-75
2022/07/21 11:30:05;;;;;;;12.30;1.70;;;11.70;99.90;;;;;;5053774;28;20104;-75
2022/07/21 11:32:32;;;;;;;2.85;0.77;;;11.70;99.90;;;;;;5053726;28;20033;-76
2022/07/21 11:35:05;;;;;;;7.20;1.58;;;11.70;99.90;;;;;;5053514;28;20027;-74
2022/07/21 11:37:44;;;;;;;5.97;1.55;;;11.80;99.90;;;;;;5053638;28;20492;-76
2022/07/21 11:40:18;;;;;;;7.68;1.58;;;11.70;99.90;;;;;;5053909;28;20025;-75
2022/07/21 11:42:48;;;;;;;8.18;1.95;;;11.70;99.90;;;;;;5053748;28;20033;-75
2022/07/21 11:45:22;;;;;;;4.18;0.73;;;11.70;99.90;;;;;;5053718;28;20021;-75
2022/07/21 11:47:51;;;;;;;6.15;1.58;;;11.70;99.90;;;;;;5053544;28;20033;-75
2022/07/21 11:50:19;;;;;;;6.88;1.65;;;11.70;99.90;;;;;;5053308;28;20021;-76
2022/07/21 11:52:47;;;;;;;10.95;0.95;;;11.70;99.90;;;;;;5053469;28;20017;-76
2022/07/21 11:55:15;;;;;;;4.78;1.48;;;11.60;99.90;;;;;;5053365;28;20024;-76
2022/07/21 11:57:45;;;;;;;5.03;2.03;;;11.60;99.90;;;;;;5053488;28;20021;-76
2022/07/21 12:00:14;;;;;;;8.77;1.38;;;11.60;99.90;;;;;;5053591;28;20424;-75
2022/07/21 12:02:42;;;;;;;12.23;1.88;;;11.60;99.90;;;;;;5053171;28;20040;-76
2022/07/21 12:05:12;;;;;;;6.22;1.60;;;11.50;99.90;;;;;;5053549;28;20036;-76
2022/07/21 12:07:43;;;;;;;8.32;1.65;;;11.60;99.90;;;;;;5053429;28;20028;-76
2022/07/21 12:10:14;;;;;;;5.80;1.30;;;11.60;99.90;;;;;;5052101;28;20025;-76
2022/07/21 12:12:46;;;;;;;5.95;1.45;;;11.50;99.90;;;;;;5053202;28;20056;-75
2022/07/21 12:15:31;;;;;;;5.10;1.33;;;11.60;99.90;;;;;;5053219;28;20024;-76
2022/07/21 12:18:17;;;;;;;7.05;1.00;;;11.50;99.90;;;;;;5054016;28;20021;-76
2022/07/21 12:20:45;;;;;;;6.53;1.42;;;11.60;99.90;;;;;;5053352;28;20462;-75
2022/07/21 12:23:28;;;;;;;10.27;2.17;;;11.50;99.90;;;;;;5053248;28;20462;-75
2022/07/21 12:26:01;;;;;;;5.15;1.38;;;11.60;99.90;;;;;;5053120;28;20033;-75
2022/07/21 12:28:46;;;;;;;8.05;1.38;;;11.60;99.90;;;;;;5053272;28;20107;-75
2022/07/21 12:31:20;;;;;;;5.55;1.00;;;11.50;99.90;;;;;;5053086;28;20048;-75
2022/07/21 12:33:50;;;;;;;5.00;1.00;;;11.50;99.90;;;;;;5052877;28;20044;-75
2022/07/21 12:36:21;;;;;;;6.40;1.17;;;11.50;99.90;;;;;;5056905;28;20048;-75
2022/07/21 12:38:53;;;;;;;12.45;1.30;;;11.50;99.90;;;;;;5057224;28;20063;-76
2022/07/21 12:41:22;;;;;;;8.82;1.30;;;11.50;99.90;;;;;;5056994;28;20070;-76
2022/07/21 12:44:03;;;;;;;5.70;1.15;;;11.50;99.90;;;;;;5057077;28;20061;-74
2022/07/21 12:46:33;;;;;;;6.68;1.20;;;11.60;99.90;;;;;;5057035;28;20040;-75
2022/07/21 12:49:12;;;;;;;9.93;1.25;;;11.50;99.90;;;;;;5056825;28;20021;-74
2022/07/21 12:51:42;;;;;;;4.82;0.70;;;11.50;99.90;;;;;;5055680;28;20025;-74
2022/07/21 12:54:09;;;;;;;3.88;0.70;;;11.50;99.90;;;;;;5056515;28;20077;-72
2022/07/21 12:56:38;;;;;;;8.43;1.88;;;11.50;99.90;;;;;;5056508;28;20029;-75
2022/07/21 12:59:06;;;;;;;6.85;1.48;;;11.60;99.90;;;;;;5056577;28;20044;-73
2022/07/21 13:01:34;;;;;;;7.20;1.08;;;11.60;99.90;;;;;;5055118;28;20482;-75